sensor_id;sensor_type;location;lat;lon;timestamp;P1;durP1;ratioP1;P2;durP2;ratioP2
72369;SDS011;60343;-32.030;115.880;2022-10-16T00:00:07;4.88;;;0.90;;
72369;SDS011;60343;-32.030;115.880;2022-10-16T00:02:36;6.15;;;0.95;;
72369;SDS011;60343;-32.030;115.880;2022-10-16T00:05:04;5.90;;;0.93;;
72369;SDS011;60343;-32.030;115.880;2022-10-16T00:07:32;5.63;;;1.00;;
72369;SDS011;60343;-32.030;115.880;2022-10-16T00:10:05;8.60;;;0.90;;
72369;SDS011;60343;-32.030;115.880;2022-10-16T00:12:34;6.38;;;0.77;;
72369;SDS011;60343;-32.030;115.880;2022-10-16T00:15:01;5.78;;;1.00;;
72369;SDS011;60343;-32.030;115.880;2022-10-16T00:17:32;6.88;;;0.77;;
72369;SDS011;60343;-32.030;115.880;2022-10-16T00:20:01;2.80;;;0.50;;
72369;SDS011;60343;-32.030;115.880;2022-10-16T00:22:32;3.67;;;0.50;;
72369;SDS011;60343;-32.030;115.880;2022-10-16T00:25:07;2.13;;;0.30;;
72369;SDS011;60343;-32.030;115.880;2022-10-16T00:27:36;7.65;;;0.55;;
72369;SDS011;60343;-32.030;115.880;2022-10-16T00:30:04;2.80;;;0.50;;
72369;SDS011;60343;-32.030;115.880;2022-10-16T00:32:36;6.75;;;0.50;;
72369;SDS011;60343;-32.030;115.880;2022-10-16T00:35:03;4.63;;;0.35;;
72369;SDS011;60343;-32.030;115.880;2022-10-16T00:37:32;2.75;;;0.43;;
72369;SDS011;60343;-32.030;115.880;2022-10-16T00:40:05;3.83;;;0.30;;
72369;SDS011;60343;-32.030;115.880;2022-10-16T00:42:37;3.58;;;0.50;;
72369;SDS011;60343;-32.030;115.880;2022-10-16T00:45:07;3.10;;;0.60;;
72369;SDS011;60343;-32.030;115.880;2022-10-16T00:47:36;3.90;;;0.13;;
72369;SDS011;60343;-32.030;115.880;2022-10-16T00:50:10;4.55;;;0.43;;
72369;SDS011;60343;-32.030;115.880;2022-10-16T00:52:43;3.80;;;0.30;;
72369;SDS011;60343;-32.030;115.880;2022-10-16T00:55:19;2.90;;;0.20;;
72369;SDS011;60343;-32.030;115.880;2022-10-16T00:57:47;1.52;;;0.20;;
72369;SDS011;60343;-32.030;115.880;2022-10-16T01:00:18;1.40;;;0.30;;
72369;SDS011;60343;-32.030;115.880;2022-10-16T01:02:51;2.63;;;0.22;;
72369;SDS011;60343;-32.030;115.880;2022-10-16T01:05:20;1.60;;;0.25;;
72369;SDS011;60343;-32.030;115.880;2022-10-16T01:07:52;4.45;;;0.35;;
72369;SDS011;60343;-32.030;115.880;2022-10-16T01:10:38;2.83;;;0.20;;
72369;SDS011;60343;-32.030;115.880;2022-10-16T01:15:37;3.22;;;0.30;;
72369;SDS011;60343;-32.030;115.880;2022-10-16T01:18:08;3.78;;;0.40;;
72369;SDS011;60343;-32.030;115.880;2022-10-16T01:20:40;1.50;;;0.20;;
72369;SDS011;60343;-32.030;115.880;2022-10-16T01:23:18;1.65;;;0.22;;
72369;SDS011;60343;-32.030;115.880;2022-10-16T01:26:03;0.90;;;0.10;;
72369;SDS011;60343;-32.030;115.880;2022-10-16T01:28:57;2.22;;;0.17;;
72369;SDS011;60343;-32.030;115.880;2022-10-16T01:31:31;2.25;;;0.20;;
72369;SDS011;60343;-32.030;115.880;2022-10-16T01:34:03;2.55;;;0.30;;
72369;SDS011;60343;-32.030;115.880;2022-10-16T01:36:37;2.20;;;0.20;;
72369;SDS011;60343;-32.030;115.880;2022-10-16T01:39:08;2.08;;;0.20;;
72369;SDS011;60343;-32.030;115.880;2022-10-16T01:41:41;2.13;;;0.30;;
72369;SDS011;60343;-32.030;115.880;2022-10-16T01:44:20;0.75;;;0.30;;
72369;SDS011;60343;-32.030;115.880;2022-10-16T01:46:52;1.38;;;0.10;;
72369;SDS011;60343;-32.030;115.880;2022-10-16T01:49:22;3.60;;;0.40;;
72369;SDS011;60343;-32.030;115.880;2022-10-16T01:51:55;1.95;;;0.32;;
72369;SDS011;60343;-32.030;115.880;2022-10-16T01:54:26;1.88;;;0.20;;
72369;SDS011;60343;-32.030;115.880;2022-10-16T01:56:56;2.03;;;0.30;;
72369;SDS011;60343;-32.030;115.880;2022-10-16T01:59:31;1.02;;;0.10;;
72369;SDS011;60343;-32.030;115.880;2022-10-16T02:02:05;1.13;;;0.13;;
72369;SDS011;60343;-32.030;115.880;2022-10-16T02:04:36;3.45;;;0.25;;
72369;SDS011;60343;-32.030;115.880;2022-10-16T02:07:06;1.63;;;0.20;;
72369;SDS011;60343;-32.030;115.880;2022-10-16T02:09:34;1.60;;;0.10;;
72369;SDS011;60343;-32.030;115.880;2022-10-16T02:12:03;2.47;;;0.20;;
72369;SDS011;60343;-32.030;115.880;2022-10-16T02:14:41;0.70;;;0.22;;
72369;SDS011;60343;-32.030;115.880;2022-10-16T02:17:13;1.45;;;0.10;;
72369;SDS011;60343;-32.030;115.880;2022-10-16T02:19:43;0.70;;;0.10;;
72369;SDS011;60343;-32.030;115.880;2022-10-16T02:22:15;1.00;;;0.10;;
72369;SDS011;60343;-32.030;115.880;2022-10-16T02:24:47;1.58;;;0.20;;
72369;SDS011;60343;-32.030;115.880;2022-10-16T02:27:20;0.98;;;0.10;;
72369;SDS011;60343;-32.030;115.880;2022-10-16T02:29:59;2.15;;;0.30;;
72369;SDS011;60343;-32.030;115.880;2022-10-16T02:32:31;2.63;;;0.30;;
72369;SDS011;60343;-32.030;115.880;2022-10-16T02:35:02;2.17;;;0.20;;
72369;SDS011;60343;-32.030;115.880;2022-10-16T02:37:33;1.90;;;0.20;;
72369;SDS011;60343;-32.030;115.880;2022-10-16T02:40:02;2.15;;;0.38;;
72369;SDS011;60343;-32.030;115.880;2022-10-16T02:42:33;0.98;;;0.10;;
72369;SDS011;60343;-32.030;115.880;2022-10-16T02:45:08;2.15;;;0.20;;
72369;SDS011;60343;-32.030;115.880;2022-10-16T02:47:37;2.75;;;0.20;;
72369;SDS011;60343;-32.030;115.880;2022-10-16T02:50:05;2.22;;;0.28;;
72369;SDS011;60343;-32.030;115.880;2022-10-16T02:52:33;1.17;;;0.20;;
72369;SDS011;60343;-32.030;115.880;2022-10-16T02:55:00;1.80;;;0.22;;
72369;SDS011;60343;-32.030;115.880;2022-10-16T02:57:28;0.30;;;0.10;;
72369;SDS011;60343;-32.030;115.880;2022-10-16T02:59:56;3.97;;;0.43;;
72369;SDS011;60343;-32.030;115.880;2022-10-16T03:02:29;1.23;;;0.20;;
72369;SDS011;60343;-32.030;115.880;2022-10-16T03:04:57;1.80;;;0.20;;
72369;SDS011;60343;-32.030;115.880;2022-10-16T03:07:25;1.85;;;0.10;;
72369;SDS011;60343;-32.030;115.880;2022-10-16T03:09:52;0.93;;;0.13;;
72369;SDS011;60343;-32.030;115.880;2022-10-16T03:12:20;1.02;;;0.10;;
72369;SDS011;60343;-32.030;115.880;2022-10-16T03:14:47;2.50;;;0.15;;
72369;SDS011;60343;-32.030;115.880;2022-10-16T03:17:15;2.40;;;0.32;;
72369;SDS011;60343;-32.030;115.880;2022-10-16T03:19:49;1.13;;;0.10;;
72369;SDS011;60343;-32.030;115.880;2022-10-16T03:22:17;3.28;;;0.20;;
72369;SDS011;60343;-32.030;115.880;2022-10-16T03:24:45;1.77;;;0.20;;
72369;SDS011;60343;-32.030;115.880;2022-10-16T03:27:12;2.22;;;0.25;;
72369;SDS011;60343;-32.030;115.880;2022-10-16T03:29:40;2.17;;;0.20;;
72369;SDS011;60343;-32.030;115.880;2022-10-16T03:32:08;1.73;;;0.47;;
72369;SDS011;60343;-32.030;115.880;2022-10-16T03:34:35;0.65;;;0.10;;
72369;SDS011;60343;-32.030;115.880;2022-10-16T03:37:10;1.05;;;0.10;;
72369;SDS011;60343;-32.030;115.880;2022-10-16T03:39:37;1.10;;;0.10;;
72369;SDS011;60343;-32.030;115.880;2022-10-16T03:42:05;1.85;;;0.10;;
72369;SDS011;60343;-32.030;115.880;2022-10-16T03:44:33;0.68;;;0.10;;
72369;SDS011;60343;-32.030;115.880;2022-10-16T03:47:00;1.48;;;0.20;;
72369;SDS011;60343;-32.030;115.880;2022-10-16T03:49:28;1.00;;;0.13;;
72369;SDS011;60343;-32.030;115.880;2022-10-16T03:51:56;0.45;;;0.10;;
72369;SDS011;60343;-32.030;115.880;2022-10-16T03:54:30;1.70;;;0.15;;
72369;SDS011;60343;-32.030;115.880;2022-10-16T03:56:58;0.68;;;0.10;;
72369;SDS011;60343;-32.030;115.880;2022-10-16T03:59:25;0.10;;;0.00;;
72369;SDS011;60343;-32.030;115.880;2022-10-16T04:01:53;1.88;;;0.10;;
72369;SDS011;60343;-32.030;115.880;2022-10-16T04:04:21;1.33;;;0.30;;
72369;SDS011;60343;-32.030;115.880;2022-10-16T04:06:48;2.08;;;0.20;;
72369;SDS011;60343;-32.030;115.880;2022-10-16T04:09:16;0.77;;;0.10;;
72369;SDS011;60343;-32.030;115.880;2022-10-16T04:11:49;2.35;;;0.10;;
72369;SDS011;60343;-32.030;115.880;2022-10-16T04:14:17;0.93;;;0.10;;
72369;SDS011;60343;-32.030;115.880;2022-10-16T04:16:45;2.63;;;0.20;;
72369;SDS011;60343;-32.030;115.880;2022-10-16T04:19:12;0.50;;;0.10;;
72369;SDS011;60343;-32.030;115.880;2022-10-16T04:21:40;1.00;;;0.10;;
72369;SDS011;60343;-32.030;115.880;2022-10-16T04:24:08;2.15;;;0.20;;
72369;SDS011;60343;-32.030;115.880;2022-10-16T04:26:35;2.47;;;0.20;;
72369;SDS011;60343;-32.030;115.880;2022-10-16T04:29:08;2.70;;;0.20;;
72369;SDS011;60343;-32.030;115.880;2022-10-16T04:31:36;0.63;;;0.10;;
72369;SDS011;60343;-32.030;115.880;2022-10-16T04:34:03;0.55;;;0.10;;
72369;SDS011;60343;-32.030;115.880;2022-10-16T04:36:31;1.92;;;0.25;;
72369;SDS011;60343;-32.030;115.880;2022-10-16T04:38:59;2.28;;;0.40;;
72369;SDS011;60343;-32.030;115.880;2022-10-16T04:41:26;1.95;;;0.20;;
72369;SDS011;60343;-32.030;115.880;2022-10-16T04:43:54;0.70;;;0.10;;
72369;SDS011;60343;-32.030;115.880;2022-10-16T04:46:27;1.45;;;0.10;;
72369;SDS011;60343;-32.030;115.880;2022-10-16T04:48:55;0.75;;;0.10;;
72369;SDS011;60343;-32.030;115.880;2022-10-16T04:51:23;3.50;;;0.20;;
72369;SDS011;60343;-32.030;115.880;2022-10-16T04:53:50;0.93;;;0.00;;
72369;SDS011;60343;-32.030;115.880;2022-10-16T04:56:18;2.42;;;0.22;;
72369;SDS011;60343;-32.030;115.880;2022-10-16T04:58:46;1.90;;;0.10;;
72369;SDS011;60343;-32.030;115.880;2022-10-16T05:01:14;1.17;;;0.10;;
72369;SDS011;60343;-32.030;115.880;2022-10-16T05:03:47;1.10;;;0.20;;
72369;SDS011;60343;-32.030;115.880;2022-10-16T05:06:15;0.45;;;0.08;;
72369;SDS011;60343;-32.030;115.880;2022-10-16T05:08:42;1.15;;;0.20;;
72369;SDS011;60343;-32.030;115.880;2022-10-16T05:11:10;1.83;;;0.10;;
72369;SDS011;60343;-32.030;115.880;2022-10-16T05:13:38;1.85;;;0.20;;
72369;SDS011;60343;-32.030;115.880;2022-10-16T05:16:05;1.65;;;0.15;;
72369;SDS011;60343;-32.030;115.880;2022-10-16T05:18:33;1.42;;;0.30;;
72369;SDS011;60343;-32.030;115.880;2022-10-16T05:21:06;2.60;;;0.10;;
72369;SDS011;60343;-32.030;115.880;2022-10-16T05:23:34;1.00;;;0.30;;
72369;SDS011;60343;-32.030;115.880;2022-10-16T05:26:02;5.03;;;0.68;;
72369;SDS011;60343;-32.030;115.880;2022-10-16T05:28:30;2.15;;;0.17;;
72369;SDS011;60343;-32.030;115.880;2022-10-16T05:30:58;1.92;;;0.28;;
72369;SDS011;60343;-32.030;115.880;2022-10-16T05:34:51;0.43;;;0.10;;
72369;SDS011;60343;-32.030;115.880;2022-10-16T05:36:47;1.83;;;0.20;;
72369;SDS011;60343;-32.030;115.880;2022-10-16T05:39:15;1.38;;;0.10;;
72369;SDS011;60343;-32.030;115.880;2022-10-16T05:41:42;1.30;;;0.10;;
72369;SDS011;60343;-32.030;115.880;2022-10-16T05:44:10;0.73;;;0.05;;
72369;SDS011;60343;-32.030;115.880;2022-10-16T05:46:38;1.88;;;0.15;;
72369;SDS011;60343;-32.030;115.880;2022-10-16T05:49:06;1.33;;;0.10;;
72369;SDS011;60343;-32.030;115.880;2022-10-16T05:51:33;1.65;;;0.10;;
72369;SDS011;60343;-32.030;115.880;2022-10-16T05:54:08;1.35;;;0.20;;
72369;SDS011;60343;-32.030;115.880;2022-10-16T05:56:38;1.50;;;0.10;;
72369;SDS011;60343;-32.030;115.880;2022-10-16T05:59:06;2.47;;;0.20;;
72369;SDS011;60343;-32.030;115.880;2022-10-16T06:01:33;1.17;;;0.17;;
72369;SDS011;60343;-32.030;115.880;2022-10-16T06:04:01;1.17;;;0.10;;
72369;SDS011;60343;-32.030;115.880;2022-10-16T06:06:29;1.15;;;0.10;;
72369;SDS011;60343;-32.030;115.880;2022-10-16T06:08:56;0.90;;;0.03;;
72369;SDS011;60343;-32.030;115.880;2022-10-16T06:11:31;0.50;;;0.10;;
72369;SDS011;60343;-32.030;115.880;2022-10-16T06:14:00;1.25;;;0.20;;
72369;SDS011;60343;-32.030;115.880;2022-10-16T06:16:28;0.93;;;0.10;;
72369;SDS011;60343;-32.030;115.880;2022-10-16T06:18:56;1.35;;;0.20;;
72369;SDS011;60343;-32.030;115.880;2022-10-16T06:21:24;1.42;;;0.17;;
72369;SDS011;60343;-32.030;115.880;2022-10-16T06:23:53;1.77;;;0.28;;
72369;SDS011;60343;-32.030;115.880;2022-10-16T06:26:22;0.98;;;0.20;;
72369;SDS011;60343;-32.030;115.880;2022-10-16T06:28:56;2.10;;;0.10;;
72369;SDS011;60343;-32.030;115.880;2022-10-16T06:31:25;1.83;;;0.20;;
72369;SDS011;60343;-32.030;115.880;2022-10-16T06:33:55;0.90;;;0.10;;
72369;SDS011;60343;-32.030;115.880;2022-10-16T06:36:23;1.45;;;0.10;;
72369;SDS011;60343;-32.030;115.880;2022-10-16T06:38:51;1.38;;;0.10;;
72369;SDS011;60343;-32.030;115.880;2022-10-16T06:41:19;1.15;;;0.10;;
72369;SDS011;60343;-32.030;115.880;2022-10-16T06:43:48;2.63;;;0.10;;
72369;SDS011;60343;-32.030;115.880;2022-10-16T06:46:23;3.65;;;0.20;;
72369;SDS011;60343;-32.030;115.880;2022-10-16T06:48:52;1.92;;;0.20;;
72369;SDS011;60343;-32.030;115.880;2022-10-16T06:51:20;2.42;;;0.38;;
72369;SDS011;60343;-32.030;115.880;2022-10-16T06:53:49;0.45;;;0.10;;
72369;SDS011;60343;-32.030;115.880;2022-10-16T06:56:18;0.93;;;0.10;;
72369;SDS011;60343;-32.030;115.880;2022-10-16T06:58:47;1.83;;;0.20;;
72369;SDS011;60343;-32.030;115.880;2022-10-16T07:01:22;0.45;;;0.10;;
72369;SDS011;60343;-32.030;115.880;2022-10-16T07:03:50;1.13;;;0.10;;
72369;SDS011;60343;-32.030;115.880;2022-10-16T07:06:19;2.22;;;0.10;;
72369;SDS011;60343;-32.030;115.880;2022-10-16T07:08:48;1.98;;;0.10;;
72369;SDS011;60343;-32.030;115.880;2022-10-16T07:11:16;0.98;;;0.10;;
72369;SDS011;60343;-32.030;115.880;2022-10-16T07:13:45;0.98;;;0.10;;
72369;SDS011;60343;-32.030;115.880;2022-10-16T07:16:14;0.73;;;0.10;;
72369;SDS011;60343;-32.030;115.880;2022-10-16T07:18:50;3.53;;;0.13;;
72369;SDS011;60343;-32.030;115.880;2022-10-16T07:21:18;2.40;;;0.20;;
72369;SDS011;60343;-32.030;115.880;2022-10-16T07:23:50;1.55;;;0.20;;
72369;SDS011;60343;-32.030;115.880;2022-10-16T07:26:18;1.25;;;0.10;;
72369;SDS011;60343;-32.030;115.880;2022-10-16T07:28:45;1.17;;;0.10;;
72369;SDS011;60343;-32.030;115.880;2022-10-16T07:31:13;0.98;;;0.10;;
72369;SDS011;60343;-32.030;115.880;2022-10-16T07:33:47;0.60;;;0.13;;
72369;SDS011;60343;-32.030;115.880;2022-10-16T07:36:16;1.15;;;0.00;;
72369;SDS011;60343;-32.030;115.880;2022-10-16T07:38:45;0.10;;;0.00;;
72369;SDS011;60343;-32.030;115.880;2022-10-16T07:41:13;0.93;;;0.10;;
72369;SDS011;60343;-32.030;115.880;2022-10-16T07:43:45;0.85;;;0.10;;
72369;SDS011;60343;-32.030;115.880;2022-10-16T07:46:14;1.20;;;0.13;;
72369;SDS011;60343;-32.030;115.880;2022-10-16T07:48:48;2.08;;;0.13;;
72369;SDS011;60343;-32.030;115.880;2022-10-16T07:51:17;0.98;;;0.00;;
72369;SDS011;60343;-32.030;115.880;2022-10-16T07:53:45;0.10;;;0.00;;
72369;SDS011;60343;-32.030;115.880;2022-10-16T07:56:13;0.10;;;0.00;;
72369;SDS011;60343;-32.030;115.880;2022-10-16T07:58:41;0.25;;;0.00;;
72369;SDS011;60343;-32.030;115.880;2022-10-16T08:01:09;0.70;;;0.05;;
72369;SDS011;60343;-32.030;115.880;2022-10-16T08:03:38;0.38;;;0.10;;
72369;SDS011;60343;-32.030;115.880;2022-10-16T08:06:13;0.20;;;0.10;;
72369;SDS011;60343;-32.030;115.880;2022-10-16T08:08:43;0.68;;;0.00;;
72369;SDS011;60343;-32.030;115.880;2022-10-16T08:11:11;0.70;;;0.10;;
72369;SDS011;60343;-32.030;115.880;2022-10-16T08:13:38;0.43;;;0.00;;
72369;SDS011;60343;-32.030;115.880;2022-10-16T08:16:06;0.55;;;0.08;;
72369;SDS011;60343;-32.030;115.880;2022-10-16T08:18:34;2.75;;;0.10;;
72369;SDS011;60343;-32.030;115.880;2022-10-16T08:21:03;2.90;;;0.15;;
72369;SDS011;60343;-32.030;115.880;2022-10-16T08:23:38;0.88;;;0.10;;
72369;SDS011;60343;-32.030;115.880;2022-10-16T08:26:06;0.10;;;0.00;;
72369;SDS011;60343;-32.030;115.880;2022-10-16T08:28:34;1.90;;;0.10;;
72369;SDS011;60343;-32.030;115.880;2022-10-16T08:31:06;0.45;;;0.00;;
72369;SDS011;60343;-32.030;115.880;2022-10-16T08:36:01;0.90;;;0.10;;
72369;SDS011;60343;-32.030;115.880;2022-10-16T08:38:29;1.95;;;0.20;;
72369;SDS011;60343;-32.030;115.880;2022-10-16T08:41:10;0.55;;;0.10;;
72369;SDS011;60343;-32.030;115.880;2022-10-16T08:44:06;2.72;;;0.05;;
72369;SDS011;60343;-32.030;115.880;2022-10-16T08:46:46;0.63;;;0.10;;
72369;SDS011;60343;-32.030;115.880;2022-10-16T08:49:21;0.98;;;0.10;;
72369;SDS011;60343;-32.030;115.880;2022-10-16T08:51:50;0.75;;;0.05;;
72369;SDS011;60343;-32.030;115.880;2022-10-16T08:54:32;1.08;;;0.20;;
72369;SDS011;60343;-32.030;115.880;2022-10-16T08:57:08;0.60;;;0.00;;
72369;SDS011;60343;-32.030;115.880;2022-10-16T08:59:38;0.93;;;0.10;;
72369;SDS011;60343;-32.030;115.880;2022-10-16T09:02:12;0.15;;;0.00;;
72369;SDS011;60343;-32.030;115.880;2022-10-16T09:04:53;1.20;;;0.17;;
72369;SDS011;60343;-32.030;115.880;2022-10-16T09:07:44;0.20;;;0.00;;
72369;SDS011;60343;-32.030;115.880;2022-10-16T09:10:29;1.27;;;0.13;;
72369;SDS011;60343;-32.030;115.880;2022-10-16T09:13:10;2.80;;;0.20;;
72369;SDS011;60343;-32.030;115.880;2022-10-16T09:15:45;1.83;;;0.13;;
72369;SDS011;60343;-32.030;115.880;2022-10-16T09:18:19;1.00;;;0.10;;
72369;SDS011;60343;-32.030;115.880;2022-10-16T09:20:53;1.85;;;0.10;;
72369;SDS011;60343;-32.030;115.880;2022-10-16T09:23:27;1.55;;;0.13;;
72369;SDS011;60343;-32.030;115.880;2022-10-16T09:26:01;1.13;;;0.00;;
72369;SDS011;60343;-32.030;115.880;2022-10-16T09:28:30;0.52;;;0.10;;
72369;SDS011;60343;-32.030;115.880;2022-10-16T09:30:58;0.93;;;0.03;;
72369;SDS011;60343;-32.030;115.880;2022-10-16T09:33:28;1.15;;;0.10;;
72369;SDS011;60343;-32.030;115.880;2022-10-16T09:35:59;0.88;;;0.10;;
72369;SDS011;60343;-32.030;115.880;2022-10-16T09:38:31;2.20;;;0.10;;
72369;SDS011;60343;-32.030;115.880;2022-10-16T09:41:17;0.35;;;0.00;;
72369;SDS011;60343;-32.030;115.880;2022-10-16T09:43:47;2.05;;;0.10;;
72369;SDS011;60343;-32.030;115.880;2022-10-16T09:46:22;0.32;;;0.10;;
72369;SDS011;60343;-32.030;115.880;2022-10-16T09:48:53;0.25;;;0.10;;
72369;SDS011;60343;-32.030;115.880;2022-10-16T09:51:23;0.10;;;0.00;;
72369;SDS011;60343;-32.030;115.880;2022-10-16T09:53:54;1.05;;;0.10;;
72369;SDS011;60343;-32.030;115.880;2022-10-16T09:56:30;0.03;;;0.00;;
72369;SDS011;60343;-32.030;115.880;2022-10-16T09:58:59;1.13;;;0.13;;
72369;SDS011;60343;-32.030;115.880;2022-10-16T10:01:30;1.13;;;0.10;;
72369;SDS011;60343;-32.030;115.880;2022-10-16T10:04:02;1.25;;;0.05;;
72369;SDS011;60343;-32.030;115.880;2022-10-16T10:06:31;0.03;;;0.00;;
72369;SDS011;60343;-32.030;115.880;2022-10-16T10:09:04;1.55;;;0.20;;
72369;SDS011;60343;-32.030;115.880;2022-10-16T10:11:47;0.90;;;0.10;;
72369;SDS011;60343;-32.030;115.880;2022-10-16T10:14:23;5.57;;;0.20;;
72369;SDS011;60343;-32.030;115.880;2022-10-16T10:17:02;0.60;;;0.20;;
72369;SDS011;60343;-32.030;115.880;2022-10-16T10:19:37;0.05;;;0.00;;
72369;SDS011;60343;-32.030;115.880;2022-10-16T10:22:15;1.55;;;0.00;;
72369;SDS011;60343;-32.030;115.880;2022-10-16T10:25:00;0.65;;;0.20;;
72369;SDS011;60343;-32.030;115.880;2022-10-16T10:27:48;1.23;;;0.40;;
72369;SDS011;60343;-32.030;115.880;2022-10-16T10:30:25;1.27;;;0.40;;
72369;SDS011;60343;-32.030;115.880;2022-10-16T10:33:05;1.38;;;0.20;;
72369;SDS011;60343;-32.030;115.880;2022-10-16T10:35:52;1.85;;;0.28;;
72369;SDS011;60343;-32.030;115.880;2022-10-16T10:38:32;0.47;;;0.13;;
72369;SDS011;60343;-32.030;115.880;2022-10-16T10:41:12;2.15;;;0.10;;
72369;SDS011;60343;-32.030;115.880;2022-10-16T10:44:01;0.63;;;0.10;;
72369;SDS011;60343;-32.030;115.880;2022-10-16T10:46:45;0.38;;;0.10;;
72369;SDS011;60343;-32.030;115.880;2022-10-16T10:49:19;0.32;;;0.00;;
72369;SDS011;60343;-32.030;115.880;2022-10-16T10:52:05;0.55;;;0.10;;
72369;SDS011;60343;-32.030;115.880;2022-10-16T10:54:47;2.45;;;0.20;;
72369;SDS011;60343;-32.030;115.880;2022-10-16T10:57:21;0.70;;;0.20;;
72369;SDS011;60343;-32.030;115.880;2022-10-16T11:00:01;0.35;;;0.05;;
72369;SDS011;60343;-32.030;115.880;2022-10-16T11:02:44;0.43;;;0.08;;
72369;SDS011;60343;-32.030;115.880;2022-10-16T11:05:27;5.00;;;0.15;;
72369;SDS011;60343;-32.030;115.880;2022-10-16T11:08:08;0.25;;;0.00;;
72369;SDS011;60343;-32.030;115.880;2022-10-16T11:10:44;0.55;;;0.10;;
72369;SDS011;60343;-32.030;115.880;2022-10-16T11:19:25;1.35;;;0.20;;
72369;SDS011;60343;-32.030;115.880;2022-10-16T11:22:03;1.27;;;0.10;;
72369;SDS011;60343;-32.030;115.880;2022-10-16T11:24:37;0.00;;;0.00;;
72369;SDS011;60343;-32.030;115.880;2022-10-16T11:27:14;1.58;;;0.10;;
72369;SDS011;60343;-32.030;115.880;2022-10-16T11:29:45;0.35;;;0.10;;
72369;SDS011;60343;-32.030;115.880;2022-10-16T11:32:20;1.08;;;0.15;;
72369;SDS011;60343;-32.030;115.880;2022-10-16T11:35:00;1.92;;;0.10;;
72369;SDS011;60343;-32.030;115.880;2022-10-16T11:37:38;1.00;;;0.10;;
72369;SDS011;60343;-32.030;115.880;2022-10-16T11:40:15;1.08;;;0.25;;
72369;SDS011;60343;-32.030;115.880;2022-10-16T11:42:50;2.33;;;0.20;;
72369;SDS011;60343;-32.030;115.880;2022-10-16T11:45:26;3.45;;;0.25;;
72369;SDS011;60343;-32.030;115.880;2022-10-16T11:48:01;4.05;;;0.28;;
72369;SDS011;60343;-32.030;115.880;2022-10-16T11:50:45;1.83;;;0.20;;
72369;SDS011;60343;-32.030;115.880;2022-10-16T11:53:21;3.00;;;0.22;;
72369;SDS011;60343;-32.030;115.880;2022-10-16T11:56:05;2.28;;;0.40;;
72369;SDS011;60343;-32.030;115.880;2022-10-16T11:58:33;2.05;;;0.22;;
72369;SDS011;60343;-32.030;115.880;2022-10-16T12:03:42;2.42;;;0.20;;
72369;SDS011;60343;-32.030;115.880;2022-10-16T12:06:22;2.80;;;0.28;;
72369;SDS011;60343;-32.030;115.880;2022-10-16T12:08:58;2.80;;;0.30;;
72369;SDS011;60343;-32.030;115.880;2022-10-16T12:11:36;1.55;;;0.17;;
72369;SDS011;60343;-32.030;115.880;2022-10-16T12:14:06;1.65;;;0.20;;
72369;SDS011;60343;-32.030;115.880;2022-10-16T12:16:50;0.77;;;0.10;;
72369;SDS011;60343;-32.030;115.880;2022-10-16T12:19:20;1.50;;;0.17;;
72369;SDS011;60343;-32.030;115.880;2022-10-16T12:21:55;5.03;;;0.22;;
72369;SDS011;60343;-32.030;115.880;2022-10-16T12:24:32;2.33;;;0.20;;
72369;SDS011;60343;-32.030;115.880;2022-10-16T12:27:02;2.00;;;0.20;;
72369;SDS011;60343;-32.030;115.880;2022-10-16T12:29:36;1.65;;;0.20;;
72369;SDS011;60343;-32.030;115.880;2022-10-16T12:32:05;1.85;;;0.10;;
72369;SDS011;60343;-32.030;115.880;2022-10-16T12:37:25;0.38;;;0.10;;
72369;SDS011;60343;-32.030;115.880;2022-10-16T12:39:55;3.35;;;0.35;;
72369;SDS011;60343;-32.030;115.880;2022-10-16T12:42:31;3.25;;;0.17;;
72369;SDS011;60343;-32.030;115.880;2022-10-16T12:45:12;1.27;;;0.20;;
72369;SDS011;60343;-32.030;115.880;2022-10-16T12:47:56;1.85;;;0.20;;
72369;SDS011;60343;-32.030;115.880;2022-10-16T12:50:27;1.75;;;0.30;;
72369;SDS011;60343;-32.030;115.880;2022-10-16T12:55:32;1.63;;;0.38;;
72369;SDS011;60343;-32.030;115.880;2022-10-16T12:58:18;1.25;;;0.20;;
72369;SDS011;60343;-32.030;115.880;2022-10-16T13:00:57;2.63;;;0.30;;
72369;SDS011;60343;-32.030;115.880;2022-10-16T13:06:37;1.65;;;0.25;;
72369;SDS011;60343;-32.030;115.880;2022-10-16T13:09:23;0.82;;;0.20;;
72369;SDS011;60343;-32.030;115.880;2022-10-16T13:12:07;1.15;;;0.17;;
72369;SDS011;60343;-32.030;115.880;2022-10-16T13:17:42;1.77;;;0.20;;
72369;SDS011;60343;-32.030;115.880;2022-10-16T13:20:20;1.75;;;0.10;;
72369;SDS011;60343;-32.030;115.880;2022-10-16T13:22:58;1.42;;;0.10;;
72369;SDS011;60343;-32.030;115.880;2022-10-16T13:25:42;0.98;;;0.10;;
72369;SDS011;60343;-32.030;115.880;2022-10-16T13:28:21;1.83;;;0.20;;
72369;SDS011;60343;-32.030;115.880;2022-10-16T13:30:54;1.17;;;0.13;;
72369;SDS011;60343;-32.030;115.880;2022-10-16T13:33:26;0.30;;;0.10;;
72369;SDS011;60343;-32.030;115.880;2022-10-16T13:35:58;1.08;;;0.20;;
72369;SDS011;60343;-32.030;115.880;2022-10-16T13:38:27;4.10;;;0.30;;
72369;SDS011;60343;-32.030;115.880;2022-10-16T13:41:04;2.15;;;0.20;;
72369;SDS011;60343;-32.030;115.880;2022-10-16T13:43:33;0.65;;;0.00;;
72369;SDS011;60343;-32.030;115.880;2022-10-16T13:46:02;1.73;;;0.20;;
72369;SDS011;60343;-32.030;115.880;2022-10-16T13:48:32;0.43;;;0.05;;
72369;SDS011;60343;-32.030;115.880;2022-10-16T13:51:04;1.02;;;0.20;;
72369;SDS011;60343;-32.030;115.880;2022-10-16T13:53:37;1.23;;;0.17;;
72369;SDS011;60343;-32.030;115.880;2022-10-16T13:56:11;1.55;;;0.20;;
72369;SDS011;60343;-32.030;115.880;2022-10-16T13:58:40;0.32;;;0.10;;
72369;SDS011;60343;-32.030;115.880;2022-10-16T14:01:15;1.35;;;0.10;;
72369;SDS011;60343;-32.030;115.880;2022-10-16T14:03:44;1.65;;;0.13;;
72369;SDS011;60343;-32.030;115.880;2022-10-16T14:06:13;1.20;;;0.15;;
72369;SDS011;60343;-32.030;115.880;2022-10-16T14:08:43;1.95;;;0.30;;
72369;SDS011;60343;-32.030;115.880;2022-10-16T14:11:20;2.08;;;0.10;;
72369;SDS011;60343;-32.030;115.880;2022-10-16T14:13:50;1.27;;;0.10;;
72369;SDS011;60343;-32.030;115.880;2022-10-16T14:16:19;2.20;;;0.15;;
72369;SDS011;60343;-32.030;115.880;2022-10-16T14:18:50;0.40;;;0.10;;
72369;SDS011;60343;-32.030;115.880;2022-10-16T14:21:24;0.77;;;0.10;;
72369;SDS011;60343;-32.030;115.880;2022-10-16T14:23:52;0.28;;;0.00;;
72369;SDS011;60343;-32.030;115.880;2022-10-16T14:26:26;2.40;;;0.17;;
72369;SDS011;60343;-32.030;115.880;2022-10-16T14:29:04;2.10;;;0.30;;
72369;SDS011;60343;-32.030;115.880;2022-10-16T14:31:38;1.85;;;0.20;;
72369;SDS011;60343;-32.030;115.880;2022-10-16T14:36:55;0.60;;;0.10;;
72369;SDS011;60343;-32.030;115.880;2022-10-16T14:39:24;1.05;;;0.10;;
72369;SDS011;60343;-32.030;115.880;2022-10-16T14:41:58;1.02;;;0.20;;
72369;SDS011;60343;-32.030;115.880;2022-10-16T14:44:30;0.52;;;0.17;;
72369;SDS011;60343;-32.030;115.880;2022-10-16T14:47:05;2.15;;;0.20;;
72369;SDS011;60343;-32.030;115.880;2022-10-16T14:49:35;3.35;;;0.32;;
72369;SDS011;60343;-32.030;115.880;2022-10-16T14:52:04;1.73;;;0.22;;
72369;SDS011;60343;-32.030;115.880;2022-10-16T14:54:36;3.58;;;0.60;;
72369;SDS011;60343;-32.030;115.880;2022-10-16T14:57:13;1.63;;;0.43;;
72369;SDS011;60343;-32.030;115.880;2022-10-16T14:59:43;2.92;;;0.55;;
72369;SDS011;60343;-32.030;115.880;2022-10-16T15:02:16;2.75;;;0.50;;
72369;SDS011;60343;-32.030;115.880;2022-10-16T15:04:49;1.67;;;0.40;;